sensor_id;sensor_type;location;lat;lon;timestamp;P1;durP1;ratioP1;P2;durP2;ratioP2
20069;SDS011;10195;50.868;4.382;2024-03-23T00:54:19;16.07;;;4.23;;
20069;SDS011;10195;50.868;4.382;2024-03-23T00:56:44;12.57;;;4.07;;
20069;SDS011;10195;50.868;4.382;2024-03-23T00:59:10;15.13;;;3.87;;
20069;SDS011;10195;50.868;4.382;2024-03-23T01:01:36;15.50;;;4.20;;
20069;SDS011;10195;50.868;4.382;2024-03-23T01:04:02;15.93;;;4.27;;
20069;SDS011;10195;50.868;4.382;2024-03-23T01:06:28;12.03;;;3.90;;
20069;SDS011;10195;50.868;4.382;2024-03-23T01:08:53;17.07;;;4.87;;
20069;SDS011;10195;50.868;4.382;2024-03-23T01:11:19;12.37;;;4.33;;
20069;SDS011;10195;50.868;4.382;2024-03-23T01:13:45;10.30;;;3.90;;
20069;SDS011;10195;50.868;4.382;2024-03-23T01:16:10;13.13;;;4.23;;
20069;SDS011;10195;50.868;4.382;2024-03-23T01:18:36;14.70;;;4.50;;
20069;SDS011;10195;50.868;4.382;2024-03-23T01:21:01;18.13;;;4.80;;
20069;SDS011;10195;50.868;4.382;2024-03-23T01:23:27;15.90;;;4.30;;
20069;SDS011;10195;50.868;4.382;2024-03-23T01:25:53;16.07;;;5.27;;
20069;SDS011;10195;50.868;4.382;2024-03-23T01:28:19;14.27;;;4.50;;
20069;SDS011;10195;50.868;4.382;2024-03-23T01:30:48;19.03;;;5.37;;
20069;SDS011;10195;50.868;4.382;2024-03-23T01:33:15;18.60;;;5.33;;
20069;SDS011;10195;50.868;4.382;2024-03-23T01:35:40;19.07;;;5.60;;
20069;SDS011;10195;50.868;4.382;2024-03-23T01:38:06;17.40;;;7.10;;
20069;SDS011;10195;50.868;4.382;2024-03-23T01:40:31;19.40;;;7.30;;
20069;SDS011;10195;50.868;4.382;2024-03-23T01:43:06;19.60;;;7.27;;
20069;SDS011;10195;50.868;4.382;2024-03-23T01:45:33;23.20;;;6.93;;
20069;SDS011;10195;50.868;4.382;2024-03-23T01:47:59;19.33;;;6.37;;
20069;SDS011;10195;50.868;4.382;2024-03-23T01:50:25;20.10;;;5.97;;
20069;SDS011;10195;50.868;4.382;2024-03-23T01:52:51;14.27;;;6.30;;
20069;SDS011;10195;50.868;4.382;2024-03-23T01:55:18;21.37;;;6.63;;
20069;SDS011;10195;50.868;4.382;2024-03-23T01:57:44;15.87;;;6.73;;
20069;SDS011;10195;50.868;4.382;2024-03-23T02:00:10;15.70;;;5.97;;
20069;SDS011;10195;50.868;4.382;2024-03-23T02:02:41;15.77;;;6.80;;
20069;SDS011;10195;50.868;4.382;2024-03-23T02:05:10;19.20;;;6.63;;
20069;SDS011;10195;50.868;4.382;2024-03-23T02:07:37;18.40;;;6.83;;
20069;SDS011;10195;50.868;4.382;2024-03-23T02:10:04;18.63;;;7.13;;
20069;SDS011;10195;50.868;4.382;2024-03-23T02:12:34;22.07;;;7.07;;
20069;SDS011;10195;50.868;4.382;2024-03-23T02:15:00;18.73;;;7.10;;
20069;SDS011;10195;50.868;4.382;2024-03-23T02:17:26;21.53;;;7.40;;
20069;SDS011;10195;50.868;4.382;2024-03-23T02:19:52;21.90;;;8.37;;
20069;SDS011;10195;50.868;4.382;2024-03-23T02:22:18;20.63;;;7.77;;
20069;SDS011;10195;50.868;4.382;2024-03-23T02:24:43;24.23;;;8.40;;
20069;SDS011;10195;50.868;4.382;2024-03-23T02:27:09;20.47;;;8.57;;
20069;SDS011;10195;50.868;4.382;2024-03-23T02:29:36;27.13;;;8.40;;
20069;SDS011;10195;50.868;4.382;2024-03-23T02:32:02;24.73;;;9.20;;
20069;SDS011;10195;50.868;4.382;2024-03-23T02:34:28;27.13;;;8.33;;
20069;SDS011;10195;50.868;4.382;2024-03-23T02:36:53;23.03;;;8.10;;
20069;SDS011;10195;50.868;4.382;2024-03-23T02:39:19;20.43;;;7.70;;
20069;SDS011;10195;50.868;4.382;2024-03-23T02:41:44;25.87;;;7.77;;
20069;SDS011;10195;50.868;4.382;2024-03-23T02:44:10;32.17;;;9.07;;
20069;SDS011;10195;50.868;4.382;2024-03-23T02:46:37;20.13;;;7.43;;
20069;SDS011;10195;50.868;4.382;2024-03-23T02:49:03;24.43;;;7.93;;
20069;SDS011;10195;50.868;4.382;2024-03-23T02:51:29;26.13;;;8.67;;
20069;SDS011;10195;50.868;4.382;2024-03-23T02:53:55;24.80;;;8.37;;
20069;SDS011;10195;50.868;4.382;2024-03-23T02:56:21;22.33;;;9.27;;
20069;SDS011;10195;50.868;4.382;2024-03-23T02:58:47;26.80;;;8.50;;
20069;SDS011;10195;50.868;4.382;2024-03-23T03:01:12;26.03;;;8.60;;
20069;SDS011;10195;50.868;4.382;2024-03-23T03:03:38;19.63;;;8.97;;
20069;SDS011;10195;50.868;4.382;2024-03-23T03:06:03;21.73;;;8.43;;
20069;SDS011;10195;50.868;4.382;2024-03-23T03:08:29;27.40;;;8.03;;
20069;SDS011;10195;50.868;4.382;2024-03-23T03:10:55;21.70;;;8.27;;
20069;SDS011;10195;50.868;4.382;2024-03-23T03:13:20;27.90;;;7.97;;
20069;SDS011;10195;50.868;4.382;2024-03-23T03:15:46;20.70;;;8.53;;
20069;SDS011;10195;50.868;4.382;2024-03-23T03:18:12;20.80;;;8.30;;
20069;SDS011;10195;50.868;4.382;2024-03-23T03:20:38;26.17;;;8.93;;
20069;SDS011;10195;50.868;4.382;2024-03-23T03:23:04;24.77;;;9.13;;
20069;SDS011;10195;50.868;4.382;2024-03-23T03:25:30;20.33;;;7.93;;
20069;SDS011;10195;50.868;4.382;2024-03-23T03:27:56;22.90;;;7.83;;
20069;SDS011;10195;50.868;4.382;2024-03-23T03:30:21;25.67;;;9.07;;
20069;SDS011;10195;50.868;4.382;2024-03-23T03:32:47;25.93;;;8.37;;
20069;SDS011;10195;50.868;4.382;2024-03-23T03:35:13;30.23;;;9.30;;
20069;SDS011;10195;50.868;4.382;2024-03-23T03:37:38;26.60;;;9.00;;
20069;SDS011;10195;50.868;4.382;2024-03-23T03:40:04;25.03;;;8.30;;
20069;SDS011;10195;50.868;4.382;2024-03-23T03:42:33;27.40;;;8.53;;
20069;SDS011;10195;50.868;4.382;2024-03-23T03:44:59;28.13;;;9.37;;
20069;SDS011;10195;50.868;4.382;2024-03-23T03:47:25;22.37;;;8.23;;
20069;SDS011;10195;50.868;4.382;2024-03-23T03:49:50;24.07;;;8.33;;
20069;SDS011;10195;50.868;4.382;2024-03-23T03:52:16;24.10;;;9.03;;
20069;SDS011;10195;50.868;4.382;2024-03-23T03:54:42;27.90;;;9.47;;
20069;SDS011;10195;50.868;4.382;2024-03-23T03:57:07;23.93;;;9.07;;
20069;SDS011;10195;50.868;4.382;2024-03-23T03:59:33;26.77;;;9.33;;
20069;SDS011;10195;50.868;4.382;2024-03-23T04:01:59;20.53;;;8.00;;
20069;SDS011;10195;50.868;4.382;2024-03-23T04:04:25;27.20;;;9.23;;
20069;SDS011;10195;50.868;4.382;2024-03-23T04:06:57;24.07;;;8.50;;
20069;SDS011;10195;50.868;4.382;2024-03-23T04:09:26;24.40;;;9.03;;
20069;SDS011;10195;50.868;4.382;2024-03-23T04:11:52;18.93;;;6.10;;
20069;SDS011;10195;50.868;4.382;2024-03-23T04:14:17;20.47;;;7.70;;
20069;SDS011;10195;50.868;4.382;2024-03-23T04:16:43;24.70;;;8.13;;
20069;SDS011;10195;50.868;4.382;2024-03-23T04:19:09;19.20;;;7.37;;
20069;SDS011;10195;50.868;4.382;2024-03-23T04:21:35;21.37;;;7.63;;
20069;SDS011;10195;50.868;4.382;2024-03-23T04:24:02;22.57;;;6.67;;
20069;SDS011;10195;50.868;4.382;2024-03-23T04:26:28;17.13;;;6.97;;
20069;SDS011;10195;50.868;4.382;2024-03-23T04:28:53;24.13;;;7.60;;
20069;SDS011;10195;50.868;4.382;2024-03-23T04:31:19;26.43;;;7.77;;
20069;SDS011;10195;50.868;4.382;2024-03-23T04:33:44;20.40;;;6.13;;
20069;SDS011;10195;50.868;4.382;2024-03-23T04:36:10;18.37;;;6.67;;
20069;SDS011;10195;50.868;4.382;2024-03-23T04:38:37;14.03;;;5.67;;
20069;SDS011;10195;50.868;4.382;2024-03-23T04:41:02;21.10;;;6.77;;
20069;SDS011;10195;50.868;4.382;2024-03-23T04:43:28;25.03;;;6.73;;
20069;SDS011;10195;50.868;4.382;2024-03-23T04:45:54;16.27;;;6.03;;
20069;SDS011;10195;50.868;4.382;2024-03-23T04:48:20;27.40;;;7.23;;
20069;SDS011;10195;50.868;4.382;2024-03-23T04:50:47;14.57;;;5.93;;
20069;SDS011;10195;50.868;4.382;2024-03-23T04:53:14;19.80;;;6.20;;
20069;SDS011;10195;50.868;4.382;2024-03-23T04:55:41;16.97;;;6.30;;
20069;SDS011;10195;50.868;4.382;2024-03-23T04:58:07;14.77;;;5.00;;
20069;SDS011;10195;50.868;4.382;2024-03-23T05:00:32;20.13;;;5.63;;
20069;SDS011;10195;50.868;4.382;2024-03-23T05:02:58;19.90;;;6.33;;
20069;SDS011;10195;50.868;4.382;2024-03-23T05:05:24;20.13;;;6.87;;
20069;SDS011;10195;50.868;4.382;2024-03-23T05:07:49;19.33;;;6.37;;
20069;SDS011;10195;50.868;4.382;2024-03-23T05:10:15;12.47;;;5.73;;
20069;SDS011;10195;50.868;4.382;2024-03-23T05:12:41;17.47;;;5.43;;
20069;SDS011;10195;50.868;4.382;2024-03-23T05:15:07;20.73;;;5.57;;
20069;SDS011;10195;50.868;4.382;2024-03-23T05:17:33;14.37;;;5.77;;
20069;SDS011;10195;50.868;4.382;2024-03-23T05:19:59;20.77;;;6.57;;
20069;SDS011;10195;50.868;4.382;2024-03-23T05:22:25;16.40;;;6.33;;
20069;SDS011;10195;50.868;4.382;2024-03-23T05:24:52;22.97;;;6.03;;
20069;SDS011;10195;50.868;4.382;2024-03-23T05:27:18;21.87;;;5.97;;
20069;SDS011;10195;50.868;4.382;2024-03-23T05:29:43;18.43;;;6.53;;
20069;SDS011;10195;50.868;4.382;2024-03-23T05:32:09;18.30;;;6.80;;
20069;SDS011;10195;50.868;4.382;2024-03-23T05:34:35;14.37;;;4.80;;
20069;SDS011;10195;50.868;4.382;2024-03-23T05:37:00;19.70;;;6.33;;
20069;SDS011;10195;50.868;4.382;2024-03-23T05:39:26;16.40;;;5.97;;
20069;SDS011;10195;50.868;4.382;2024-03-23T05:41:52;19.53;;;5.07;;
20069;SDS011;10195;50.868;4.382;2024-03-23T05:44:18;19.70;;;6.13;;
20069;SDS011;10195;50.868;4.382;2024-03-23T05:46:43;15.50;;;5.90;;
20069;SDS011;10195;50.868;4.382;2024-03-23T05:49:13;18.10;;;5.30;;
20069;SDS011;10195;50.868;4.382;2024-03-23T05:51:39;24.67;;;5.83;;
20069;SDS011;10195;50.868;4.382;2024-03-23T05:54:04;19.00;;;5.83;;
20069;SDS011;10195;50.868;4.382;2024-03-23T05:56:30;19.00;;;5.30;;
20069;SDS011;10195;50.868;4.382;2024-03-23T05:58:56;21.93;;;5.13;;
20069;SDS011;10195;50.868;4.382;2024-03-23T06:01:22;18.73;;;4.57;;
20069;SDS011;10195;50.868;4.382;2024-03-23T06:03:48;13.17;;;3.97;;
20069;SDS011;10195;50.868;4.382;2024-03-23T06:06:14;14.80;;;3.70;;
20069;SDS011;10195;50.868;4.382;2024-03-23T06:08:39;15.77;;;4.43;;
20069;SDS011;10195;50.868;4.382;2024-03-23T06:11:05;13.00;;;3.47;;
20069;SDS011;10195;50.868;4.382;2024-03-23T06:13:31;10.20;;;3.83;;
20069;SDS011;10195;50.868;4.382;2024-03-23T06:15:58;18.03;;;3.90;;
20069;SDS011;10195;50.868;4.382;2024-03-23T06:18:24;12.53;;;3.30;;
20069;SDS011;10195;50.868;4.382;2024-03-23T06:20:50;10.87;;;3.13;;
20069;SDS011;10195;50.868;4.382;2024-03-23T06:23:16;14.80;;;3.40;;
20069;SDS011;10195;50.868;4.382;2024-03-23T06:25:42;20.60;;;3.63;;
20069;SDS011;10195;50.868;4.382;2024-03-23T06:28:08;10.83;;;3.37;;
20069;SDS011;10195;50.868;4.382;2024-03-23T06:30:34;13.10;;;3.03;;
20069;SDS011;10195;50.868;4.382;2024-03-23T06:32:59;19.43;;;3.20;;
20069;SDS011;10195;50.868;4.382;2024-03-23T06:35:25;17.77;;;4.00;;
20069;SDS011;10195;50.868;4.382;2024-03-23T06:37:50;11.77;;;3.17;;
20069;SDS011;10195;50.868;4.382;2024-03-23T06:40:16;25.73;;;3.43;;
20069;SDS011;10195;50.868;4.382;2024-03-23T06:42:42;23.67;;;3.67;;
20069;SDS011;10195;50.868;4.382;2024-03-23T06:45:07;16.00;;;3.30;;
20069;SDS011;10195;50.868;4.382;2024-03-23T06:47:33;11.40;;;3.07;;
20069;SDS011;10195;50.868;4.382;2024-03-23T06:49:59;14.10;;;3.70;;
20069;SDS011;10195;50.868;4.382;2024-03-23T06:52:28;11.63;;;3.63;;
20069;SDS011;10195;50.868;4.382;2024-03-23T06:54:55;12.93;;;3.33;;
20069;SDS011;10195;50.868;4.382;2024-03-23T06:57:21;14.83;;;3.60;;
20069;SDS011;10195;50.868;4.382;2024-03-23T06:59:46;21.87;;;3.57;;
20069;SDS011;10195;50.868;4.382;2024-03-23T07:02:12;22.30;;;3.90;;
20069;SDS011;10195;50.868;4.382;2024-03-23T07:04:38;17.13;;;3.83;;
20069;SDS011;10195;50.868;4.382;2024-03-23T07:07:04;8.07;;;1.77;;
20069;SDS011;10195;50.868;4.382;2024-03-23T07:09:30;7.77;;;2.43;;
20069;SDS011;10195;50.868;4.382;2024-03-23T07:11:56;11.97;;;2.77;;
20069;SDS011;10195;50.868;4.382;2024-03-23T07:14:23;7.47;;;2.30;;
20069;SDS011;10195;50.868;4.382;2024-03-23T07:16:49;10.07;;;2.70;;
20069;SDS011;10195;50.868;4.382;2024-03-23T07:19:15;10.87;;;2.67;;
20069;SDS011;10195;50.868;4.382;2024-03-23T07:21:42;13.37;;;3.13;;
20069;SDS011;10195;50.868;4.382;2024-03-23T07:24:08;7.80;;;2.30;;
20069;SDS011;10195;50.868;4.382;2024-03-23T07:26:34;9.13;;;2.00;;
20069;SDS011;10195;50.868;4.382;2024-03-23T07:29:00;8.03;;;2.33;;
20069;SDS011;10195;50.868;4.382;2024-03-23T07:31:25;7.10;;;2.20;;
20069;SDS011;10195;50.868;4.382;2024-03-23T07:33:51;14.20;;;2.83;;
20069;SDS011;10195;50.868;4.382;2024-03-23T07:36:17;7.83;;;2.37;;
20069;SDS011;10195;50.868;4.382;2024-03-23T07:38:43;16.10;;;3.97;;
20069;SDS011;10195;50.868;4.382;2024-03-23T07:41:13;12.90;;;3.03;;
20069;SDS011;10195;50.868;4.382;2024-03-23T07:43:42;16.80;;;3.03;;
20069;SDS011;10195;50.868;4.382;2024-03-23T07:46:08;14.13;;;3.30;;
20069;SDS011;10195;50.868;4.382;2024-03-23T07:48:34;13.53;;;3.27;;
20069;SDS011;10195;50.868;4.382;2024-03-23T07:53:31;13.63;;;3.20;;
20069;SDS011;10195;50.868;4.382;2024-03-23T07:55:58;9.80;;;3.00;;
20069;SDS011;10195;50.868;4.382;2024-03-23T07:58:31;12.73;;;3.20;;
20069;SDS011;10195;50.868;4.382;2024-03-23T08:01:03;11.23;;;3.43;;
20069;SDS011;10195;50.868;4.382;2024-03-23T08:03:30;13.80;;;3.27;;
20069;SDS011;10195;50.868;4.382;2024-03-23T08:05:55;11.60;;;3.40;;
20069;SDS011;10195;50.868;4.382;2024-03-23T08:08:21;17.57;;;3.80;;
20069;SDS011;10195;50.868;4.382;2024-03-23T08:10:50;15.30;;;3.30;;
20069;SDS011;10195;50.868;4.382;2024-03-23T08:13:17;10.30;;;3.00;;
20069;SDS011;10195;50.868;4.382;2024-03-23T08:15:45;11.70;;;3.27;;
20069;SDS011;10195;50.868;4.382;2024-03-23T08:18:12;17.97;;;3.47;;
20069;SDS011;10195;50.868;4.382;2024-03-23T08:20:38;15.90;;;3.33;;
20069;SDS011;10195;50.868;4.382;2024-03-23T08:23:07;11.53;;;3.13;;
20069;SDS011;10195;50.868;4.382;2024-03-23T08:25:33;13.30;;;3.00;;
20069;SDS011;10195;50.868;4.382;2024-03-23T08:27:59;17.83;;;3.30;;
20069;SDS011;10195;50.868;4.382;2024-03-23T08:30:25;7.80;;;2.33;;
20069;SDS011;10195;50.868;4.382;2024-03-23T08:32:51;10.83;;;2.77;;
20069;SDS011;10195;50.868;4.382;2024-03-23T08:35:17;11.23;;;3.10;;
20069;SDS011;10195;50.868;4.382;2024-03-23T08:37:42;11.83;;;2.80;;
20069;SDS011;10195;50.868;4.382;2024-03-23T08:40:08;11.93;;;3.00;;
20069;SDS011;10195;50.868;4.382;2024-03-23T08:42:34;12.80;;;2.87;;
20069;SDS011;10195;50.868;4.382;2024-03-23T08:45:00;15.97;;;3.37;;
20069;SDS011;10195;50.868;4.382;2024-03-23T08:47:26;12.70;;;2.60;;
20069;SDS011;10195;50.868;4.382;2024-03-23T08:49:51;4.97;;;2.17;;
20069;SDS011;10195;50.868;4.382;2024-03-23T08:52:17;16.03;;;3.33;;
20069;SDS011;10195;50.868;4.382;2024-03-23T08:54:43;11.47;;;2.70;;
20069;SDS011;10195;50.868;4.382;2024-03-23T08:57:08;9.17;;;2.77;;
20069;SDS011;10195;50.868;4.382;2024-03-23T08:59:34;12.90;;;2.67;;
20069;SDS011;10195;50.868;4.382;2024-03-23T09:02:00;11.17;;;2.50;;
20069;SDS011;10195;50.868;4.382;2024-03-23T09:04:26;13.47;;;2.93;;
20069;SDS011;10195;50.868;4.382;2024-03-23T09:06:52;15.40;;;2.57;;
20069;SDS011;10195;50.868;4.382;2024-03-23T09:09:17;14.20;;;2.73;;
20069;SDS011;10195;50.868;4.382;2024-03-23T09:11:45;13.90;;;3.00;;
20069;SDS011;10195;50.868;4.382;2024-03-23T09:14:10;10.80;;;2.93;;
20069;SDS011;10195;50.868;4.382;2024-03-23T09:16:36;11.63;;;2.80;;
20069;SDS011;10195;50.868;4.382;2024-03-23T09:19:02;7.10;;;2.60;;
20069;SDS011;10195;50.868;4.382;2024-03-23T09:21:28;9.37;;;2.60;;
20069;SDS011;10195;50.868;4.382;2024-03-23T09:23:53;17.63;;;3.37;;
20069;SDS011;10195;50.868;4.382;2024-03-23T09:26:19;10.87;;;2.63;;
20069;SDS011;10195;50.868;4.382;2024-03-23T09:28:45;11.90;;;3.07;;
20069;SDS011;10195;50.868;4.382;2024-03-23T09:31:13;13.47;;;3.40;;
20069;SDS011;10195;50.868;4.382;2024-03-23T09:33:40;7.80;;;2.40;;
20069;SDS011;10195;50.868;4.382;2024-03-23T09:36:06;12.57;;;3.27;;
20069;SDS011;10195;50.868;4.382;2024-03-23T09:38:33;20.13;;;2.87;;
20069;SDS011;10195;50.868;4.382;2024-03-23T09:40:59;9.20;;;3.20;;
20069;SDS011;10195;50.868;4.382;2024-03-23T09:43:25;8.00;;;2.97;;
20069;SDS011;10195;50.868;4.382;2024-03-23T09:45:51;12.50;;;3.03;;
20069;SDS011;10195;50.868;4.382;2024-03-23T09:48:17;10.23;;;2.73;;
20069;SDS011;10195;50.868;4.382;2024-03-23T09:50:44;9.47;;;2.67;;
20069;SDS011;10195;50.868;4.382;2024-03-23T09:53:10;8.37;;;2.57;;
20069;SDS011;10195;50.868;4.382;2024-03-23T09:55:37;7.43;;;2.93;;
20069;SDS011;10195;50.868;4.382;2024-03-23T09:58:04;11.70;;;3.07;;
20069;SDS011;10195;50.868;4.382;2024-03-23T10:00:31;7.00;;;2.57;;
20069;SDS011;10195;50.868;4.382;2024-03-23T10:02:58;11.30;;;2.67;;
20069;SDS011;10195;50.868;4.382;2024-03-23T10:05:27;7.60;;;2.60;;
20069;SDS011;10195;50.868;4.382;2024-03-23T10:07:53;10.30;;;2.80;;
20069;SDS011;10195;50.868;4.382;2024-03-23T10:10:19;8.07;;;2.97;;
20069;SDS011;10195;50.868;4.382;2024-03-23T10:12:47;11.30;;;2.60;;
20069;SDS011;10195;50.868;4.382;2024-03-23T10:15:20;11.47;;;2.80;;
20069;SDS011;10195;50.868;4.382;2024-03-23T10:17:47;9.17;;;2.73;;
20069;SDS011;10195;50.868;4.382;2024-03-23T10:20:13;13.63;;;2.63;;
20069;SDS011;10195;50.868;4.382;2024-03-23T10:22:44;7.27;;;2.30;;
20069;SDS011;10195;50.868;4.382;2024-03-23T10:25:10;15.17;;;2.77;;
20069;SDS011;10195;50.868;4.382;2024-03-23T10:27:37;10.63;;;2.80;;
20069;SDS011;10195;50.868;4.382;2024-03-23T10:30:09;7.20;;;2.20;;
20069;SDS011;10195;50.868;4.382;2024-03-23T10:32:37;13.43;;;2.60;;
20069;SDS011;10195;50.868;4.382;2024-03-23T10:35:21;12.47;;;2.63;;
20069;SDS011;10195;50.868;4.382;2024-03-23T10:37:48;11.80;;;2.30;;
20069;SDS011;10195;50.868;4.382;2024-03-23T10:40:16;7.23;;;2.27;;
20069;SDS011;10195;50.868;4.382;2024-03-23T10:42:43;10.07;;;2.50;;
20069;SDS011;10195;50.868;4.382;2024-03-23T10:45:09;11.27;;;2.60;;
20069;SDS011;10195;50.868;4.382;2024-03-23T10:47:36;8.57;;;2.10;;
20069;SDS011;10195;50.868;4.382;2024-03-23T10:50:05;6.87;;;2.00;;
20069;SDS011;10195;50.868;4.382;2024-03-23T10:52:34;11.07;;;1.93;;
20069;SDS011;10195;50.868;4.382;2024-03-23T10:55:02;8.30;;;2.23;;
20069;SDS011;10195;50.868;4.382;2024-03-23T10:57:36;9.93;;;2.40;;
20069;SDS011;10195;50.868;4.382;2024-03-23T11:00:07;4.37;;;1.83;;
20069;SDS011;10195;50.868;4.382;2024-03-23T11:02:35;5.67;;;1.77;;
20069;SDS011;10195;50.868;4.382;2024-03-23T11:05:01;8.23;;;1.73;;
20069;SDS011;10195;50.868;4.382;2024-03-23T11:09:56;9.13;;;1.97;;
20069;SDS011;10195;50.868;4.382;2024-03-23T11:14:56;8.87;;;1.90;;
20069;SDS011;10195;50.868;4.382;2024-03-23T11:17:25;8.33;;;2.00;;
20069;SDS011;10195;50.868;4.382;2024-03-23T11:20:01;8.80;;;2.47;;
20069;SDS011;10195;50.868;4.382;2024-03-23T11:27:46;9.93;;;2.20;;
20069;SDS011;10195;50.868;4.382;2024-03-23T11:30:13;5.93;;;1.47;;
20069;SDS011;10195;50.868;4.382;2024-03-23T11:32:39;6.50;;;1.63;;
20069;SDS011;10195;50.868;4.382;2024-03-23T11:35:05;9.53;;;1.87;;
20069;SDS011;10195;50.868;4.382;2024-03-23T11:37:31;7.07;;;2.00;;
20069;SDS011;10195;50.868;4.382;2024-03-23T11:39:57;9.20;;;1.70;;
20069;SDS011;10195;50.868;4.382;2024-03-23T11:42:22;4.20;;;1.50;;
20069;SDS011;10195;50.868;4.382;2024-03-23T11:44:48;3.73;;;1.40;;
20069;SDS011;10195;50.868;4.382;2024-03-23T11:47:13;8.13;;;2.00;;
20069;SDS011;10195;50.868;4.382;2024-03-23T11:49:39;6.47;;;1.33;;
20069;SDS011;10195;50.868;4.382;2024-03-23T11:52:08;5.27;;;1.27;;
20069;SDS011;10195;50.868;4.382;2024-03-23T11:54:34;7.63;;;2.00;;
20069;SDS011;10195;50.868;4.382;2024-03-23T11:57:00;2.63;;;1.30;;
20069;SDS011;10195;50.868;4.382;2024-03-23T11:59:39;6.40;;;2.17;;
20069;SDS011;10195;50.868;4.382;2024-03-23T12:02:06;5.73;;;2.03;;
20069;SDS011;10195;50.868;4.382;2024-03-23T12:04:33;5.67;;;1.40;;
20069;SDS011;10195;50.868;4.382;2024-03-23T12:07:19;9.73;;;1.87;;
20069;SDS011;10195;50.868;4.382;2024-03-23T12:10:07;5.00;;;1.83;;
20069;SDS011;10195;50.868;4.382;2024-03-23T12:12:32;8.23;;;1.90;;
20069;SDS011;10195;50.868;4.382;2024-03-23T12:15:02;5.67;;;1.87;;
20069;SDS011;10195;50.868;4.382;2024-03-23T12:17:33;7.30;;;2.13;;
20069;SDS011;10195;50.868;4.382;2024-03-23T12:19:59;3.23;;;1.27;;
20069;SDS011;10195;50.868;4.382;2024-03-23T12:22:25;9.20;;;1.40;;
20069;SDS011;10195;50.868;4.382;2024-03-23T12:24:52;3.97;;;1.00;;
20069;SDS011;10195;50.868;4.382;2024-03-23T12:27:18;5.47;;;1.20;;
20069;SDS011;10195;50.868;4.382;2024-03-23T12:29:43;8.07;;;1.77;;
20069;SDS011;10195;50.868;4.382;2024-03-23T12:32:12;5.43;;;1.27;;
20069;SDS011;10195;50.868;4.382;2024-03-23T12:34:39;4.83;;;1.40;;
20069;SDS011;10195;50.868;4.382;2024-03-23T12:37:06;4.30;;;1.20;;
20069;SDS011;10195;50.868;4.382;2024-03-23T12:39:32;2.40;;;1.13;;
20069;SDS011;10195;50.868;4.382;2024-03-23T12:41:57;3.50;;;1.00;;
20069;SDS011;10195;50.868;4.382;2024-03-23T12:44:23;4.27;;;1.17;;
20069;SDS011;10195;50.868;4.382;2024-03-23T12:46:49;4.43;;;1.40;;
20069;SDS011;10195;50.868;4.382;2024-03-23T12:49:14;8.90;;;1.80;;
20069;SDS011;10195;50.868;4.382;2024-03-23T12:51:43;3.90;;;1.57;;
20069;SDS011;10195;50.868;4.382;2024-03-23T12:54:19;7.97;;;2.13;;
20069;SDS011;10195;50.868;4.382;2024-03-23T12:56:45;5.10;;;1.47;;
20069;SDS011;10195;50.868;4.382;2024-03-23T12:59:11;10.33;;;1.83;;
20069;SDS011;10195;50.868;4.382;2024-03-23T13:01:38;7.27;;;1.90;;
20069;SDS011;10195;50.868;4.382;2024-03-23T13:04:03;4.27;;;1.63;;
20069;SDS011;10195;50.868;4.382;2024-03-23T13:06:29;9.40;;;1.53;;
20069;SDS011;10195;50.868;4.382;2024-03-23T13:08:59;4.73;;;1.80;;
20069;SDS011;10195;50.868;4.382;2024-03-23T13:11:30;7.37;;;1.70;;
20069;SDS011;10195;50.868;4.382;2024-03-23T13:13:56;8.70;;;1.67;;
20069;SDS011;10195;50.868;4.382;2024-03-23T13:16:22;5.40;;;1.40;;
20069;SDS011;10195;50.868;4.382;2024-03-23T13:18:47;8.17;;;1.10;;
20069;SDS011;10195;50.868;4.382;2024-03-23T13:21:13;7.07;;;1.67;;
20069;SDS011;10195;50.868;4.382;2024-03-23T13:23:38;2.87;;;1.20;;
20069;SDS011;10195;50.868;4.382;2024-03-23T13:26:07;2.93;;;0.90;;
20069;SDS011;10195;50.868;4.382;2024-03-23T13:28:33;4.50;;;1.13;;
20069;SDS011;10195;50.868;4.382;2024-03-23T13:30:58;3.23;;;1.07;;
20069;SDS011;10195;50.868;4.382;2024-03-23T13:33:28;8.27;;;1.50;;
20069;SDS011;10195;50.868;4.382;2024-03-23T13:35:54;7.17;;;1.80;;
20069;SDS011;10195;50.868;4.382;2024-03-23T13:38:21;5.70;;;1.33;;
20069;SDS011;10195;50.868;4.382;2024-03-23T13:43:16;4.87;;;1.60;;
20069;SDS011;10195;50.868;4.382;2024-03-23T13:45:42;5.07;;;1.40;;
20069;SDS011;10195;50.868;4.382;2024-03-23T13:48:08;3.20;;;0.93;;
20069;SDS011;10195;50.868;4.382;2024-03-23T13:50:33;10.47;;;1.70;;
20069;SDS011;10195;50.868;4.382;2024-03-23T13:52:59;7.77;;;1.57;;
20069;SDS011;10195;50.868;4.382;2024-03-23T13:55:25;9.63;;;1.60;;
20069;SDS011;10195;50.868;4.382;2024-03-23T13:57:50;3.70;;;1.30;;
20069;SDS011;10195;50.868;4.382;2024-03-23T14:00:16;10.13;;;1.20;;
20069;SDS011;10195;50.868;4.382;2024-03-23T14:02:43;6.33;;;1.47;;
20069;SDS011;10195;50.868;4.382;2024-03-23T14:05:09;7.40;;;1.67;;
20069;SDS011;10195;50.868;4.382;2024-03-23T14:07:36;4.70;;;1.37;;
20069;SDS011;10195;50.868;4.382;2024-03-23T14:10:02;6.37;;;1.90;;
20069;SDS011;10195;50.868;4.382;2024-03-23T14:12:29;7.53;;;2.10;;
20069;SDS011;10195;50.868;4.382;2024-03-23T14:14:55;3.83;;;1.43;;
20069;SDS011;10195;50.868;4.382;2024-03-23T14:17:21;3.47;;;1.17;;
20069;SDS011;10195;50.868;4.382;2024-03-23T14:19:46;8.77;;;2.00;;
20069;SDS011;10195;50.868;4.382;2024-03-23T14:22:12;6.07;;;1.77;;
20069;SDS011;10195;50.868;4.382;2024-03-23T14:24:37;6.07;;;1.67;;
20069;SDS011;10195;50.868;4.382;2024-03-23T14:27:03;4.30;;;1.50;;
20069;SDS011;10195;50.868;4.382;2024-03-23T14:29:32;11.67;;;2.30;;
20069;SDS011;10195;50.868;4.382;2024-03-23T14:31:59;8.90;;;1.60;;
20069;SDS011;10195;50.868;4.382;2024-03-23T14:34:26;3.93;;;1.03;;
20069;SDS011;10195;50.868;4.382;2024-03-23T14:36:53;6.93;;;1.23;;
20069;SDS011;10195;50.868;4.382;2024-03-23T14:39:22;8.60;;;2.00;;
20069;SDS011;10195;50.868;4.382;2024-03-23T14:41:49;7.37;;;1.80;;
20069;SDS011;10195;50.868;4.382;2024-03-23T14:44:15;8.90;;;1.83;;
20069;SDS011;10195;50.868;4.382;2024-03-23T14:46:41;11.83;;;1.67;;
20069;SDS011;10195;50.868;4.382;2024-03-23T14:49:08;6.37;;;1.90;;
20069;SDS011;10195;50.868;4.382;2024-03-23T14:51:34;4.93;;;1.50;;
20069;SDS011;10195;50.868;4.382;2024-03-23T14:53:59;5.23;;;1.60;;
20069;SDS011;10195;50.868;4.382;2024-03-23T14:56:25;7.83;;;1.70;;
20069;SDS011;10195;50.868;4.382;2024-03-23T14:58:54;8.83;;;1.80;;
20069;SDS011;10195;50.868;4.382;2024-03-23T15:01:20;3.37;;;1.33;;
20069;SDS011;10195;50.868;4.382;2024-03-23T15:03:46;10.03;;;2.13;;
20069;SDS011;10195;50.868;4.382;2024-03-23T15:06:12;5.07;;;1.47;;
20069;SDS011;10195;50.868;4.382;2024-03-23T15:08:38;9.93;;;1.90;;
20069;SDS011;10195;50.868;4.382;2024-03-23T15:11:05;8.87;;;1.90;;
20069;SDS011;10195;50.868;4.382;2024-03-23T15:13:40;9.33;;;2.00;;
20069;SDS011;10195;50.868;4.382;2024-03-23T15:16:05;9.47;;;2.40;;
20069;SDS011;10195;50.868;4.382;2024-03-23T15:18:32;8.57;;;2.17;;
20069;SDS011;10195;50.868;4.382;2024-03-23T15:20:59;10.77;;;2.10;;
20069;SDS011;10195;50.868;4.382;2024-03-23T15:23:31;10.40;;;2.50;;
20069;SDS011;10195;50.868;4.382;2024-03-23T15:25:57;4.97;;;1.87;;
20069;SDS011;10195;50.868;4.382;2024-03-23T15:28:24;7.77;;;1.70;;
20069;SDS011;10195;50.868;4.382;2024-03-23T15:30:53;5.47;;;1.70;;
20069;SDS011;10195;50.868;4.382;2024-03-23T15:33:23;9.37;;;2.00;;
20069;SDS011;10195;50.868;4.382;2024-03-23T15:35:49;7.73;;;1.40;;
20069;SDS011;10195;50.868;4.382;2024-03-23T15:38:15;8.00;;;2.17;;
20069;SDS011;10195;50.868;4.382;2024-03-23T15:40:40;7.50;;;1.90;;
20069;SDS011;10195;50.868;4.382;2024-03-23T15:43:06;5.07;;;1.43;;